Time;durP1;ratioP1;P1;durP2;ratioP2;P2;SDS_P1;SDS_P2;PMS_P1;PMS_P2;Temp;Humidity;BMP_temperature;BMP_pressure;BME280_temperature;BME280_humidity;BME280_pressure;Samples;Min_cycle;Max_cycle;Signal;HPM_P1;HPM_P2
2022/06/16 00:00:42;;;;;;;8.47;7.57;;;19.90;99.90;;;;;;5052681;28;20464;-58
2022/06/16 00:03:11;;;;;;;15.33;8.37;;;19.90;99.90;;;;;;5052703;28;20519;-58
2022/06/16 00:05:41;;;;;;;9.20;7.57;;;19.90;99.90;;;;;;5052694;28;20445;-59
2022/06/16 00:08:09;;;;;;;9.80;6.90;;;19.90;99.90;;;;;;5052153;28;20476;-58
2022/06/16 00:10:38;;;;;;;10.57;8.10;;;19.90;99.90;;;;;;5052737;28;20938;-59
2022/06/16 00:13:05;;;;;;;8.53;7.63;;;19.90;99.90;;;;;;5052831;28;20928;-59
2022/06/16 00:15:33;;;;;;;8.37;7.53;;;19.90;99.90;;;;;;5052510;28;20456;-59
2022/06/16 00:18:00;;;;;;;10.13;7.97;;;19.80;99.90;;;;;;5052427;28;20512;-59
2022/06/16 00:20:27;;;;;;;9.33;7.40;;;19.80;99.90;;;;;;5052347;28;20499;-59
2022/06/16 00:22:56;;;;;;;8.80;7.50;;;19.80;99.90;;;;;;5052441;28;20458;-58
2022/06/16 00:25:23;;;;;;;9.13;7.87;;;19.90;99.90;;;;;;5052407;28;20457;-59
2022/06/16 00:27:50;;;;;;;11.33;9.13;;;19.90;99.90;;;;;;5052120;28;20474;-58
2022/06/16 00:30:17;;;;;;;8.17;7.27;;;19.80;99.90;;;;;;5051953;28;20528;-58
2022/06/16 00:32:44;;;;;;;8.50;7.60;;;19.70;99.90;;;;;;5051381;28;20492;-58
2022/06/16 00:35:12;;;;;;;13.30;7.47;;;19.70;99.90;;;;;;5051958;28;20446;-57
2022/06/16 00:37:39;;;;;;;9.50;8.50;;;19.80;99.90;;;;;;5051974;28;20489;-58
2022/06/16 00:40:10;;;;;;;10.63;8.70;;;19.50;99.90;;;;;;5051944;28;20482;-59
2022/06/16 00:42:37;;;;;;;9.80;8.40;;;19.10;99.90;;;;;;5051665;28;20454;-58
2022/06/16 00:45:45;;;;;;;13.40;9.57;;;18.70;99.90;;;;;;5051294;28;20493;-58
2022/06/16 00:48:15;;;;;;;10.63;9.37;;;18.70;99.90;;;;;;5051333;28;20886;-59
2022/06/16 00:50:45;;;;;;;9.53;8.43;;;18.50;99.90;;;;;;5051737;28;20512;-58
2022/06/16 00:53:12;;;;;;;11.90;9.30;;;18.50;99.90;;;;;;5051735;28;20533;-58
2022/06/16 00:55:40;;;;;;;11.17;9.10;;;18.40;99.90;;;;;;5051640;28;21000;-57
2022/06/16 00:58:09;;;;;;;9.87;8.83;;;18.50;99.90;;;;;;5051694;28;20466;-59
2022/06/16 01:00:43;;;;;;;11.57;9.60;;;18.50;99.90;;;;;;5051667;28;20547;-58
2022/06/16 01:03:11;;;;;;;11.90;9.63;;;18.60;99.90;;;;;;5051299;28;20552;-57
2022/06/16 01:05:37;;;;;;;13.93;9.23;;;18.70;99.90;;;;;;5051658;28;20591;-58
2022/06/16 01:08:05;;;;;;;10.60;9.50;;;18.60;99.90;;;;;;5051156;28;20534;-58
2022/06/16 01:10:40;;;;;;;11.97;9.30;;;18.50;99.90;;;;;;5051429;28;20537;-58
2022/06/16 01:13:42;;;;;;;9.90;8.40;;;18.20;99.90;;;;;;5051574;28;20488;-58
2022/06/16 01:16:22;;;;;;;9.90;8.67;;;18.20;99.90;;;;;;5051335;28;20506;-57
2022/06/16 01:18:56;;;;;;;10.53;9.20;;;18.10;99.90;;;;;;5051249;28;20953;-58
2022/06/16 01:21:31;;;;;;;10.33;9.20;;;18.20;99.90;;;;;;5051354;28;20461;-59
2022/06/16 01:24:31;;;;;;;10.33;8.50;;;18.00;99.90;;;;;;5051297;28;20512;-58
2022/06/16 01:27:41;;;;;;;8.90;7.70;;;18.00;99.90;;;;;;5043891;28;20548;-58
2022/06/16 01:30:13;;;;;;;10.77;9.67;;;18.40;99.90;;;;;;5047239;28;20531;-58
2022/06/16 01:32:50;;;;;;;10.23;9.20;;;18.50;99.90;;;;;;5050901;28;20536;-58
2022/06/16 01:35:30;;;;;;;11.10;7.83;;;18.60;99.90;;;;;;5050934;28;20469;-58
2022/06/16 01:38:07;;;;;;;10.23;8.47;;;18.60;99.90;;;;;;5050926;28;20474;-58
2022/06/16 01:40:40;;;;;;;10.07;9.07;;;18.60;99.90;;;;;;5050832;28;20552;-57
2022/06/16 01:43:15;;;;;;;9.43;8.43;;;18.40;99.90;;;;;;5051028;28;20889;-58
2022/06/16 01:45:50;;;;;;;11.20;9.20;;;18.50;99.90;;;;;;5050592;28;20535;-59
2022/06/16 01:48:19;;;;;;;9.20;8.13;;;18.50;99.90;;;;;;5050804;28;20473;-57
2022/06/16 01:50:51;;;;;;;9.50;8.47;;;18.50;99.90;;;;;;5050835;28;20453;-58
2022/06/16 01:53:23;;;;;;;9.40;7.57;;;18.20;99.90;;;;;;5050657;28;20480;-58
2022/06/16 01:55:56;;;;;;;10.40;8.37;;;18.30;99.90;;;;;;5050768;28;20450;-57
2022/06/16 01:58:28;;;;;;;9.90;8.63;;;18.20;99.90;;;;;;5050626;28;20470;-58
2022/06/16 02:01:00;;;;;;;11.80;9.23;;;18.00;99.90;;;;;;5050363;28;20822;-58
2022/06/16 02:03:31;;;;;;;9.07;7.63;;;18.20;99.90;;;;;;5050595;28;20461;-61
2022/06/16 02:06:02;;;;;;;13.37;9.67;;;18.40;99.90;;;;;;5050246;28;20457;-59
2022/06/16 02:08:33;;;;;;;9.57;8.57;;;18.30;99.90;;;;;;5049977;28;20449;-59
2022/06/16 02:11:05;;;;;;;12.20;8.90;;;18.00;99.90;;;;;;5049842;28;20454;-57
2022/06/16 02:13:37;;;;;;;10.50;9.43;;;18.00;99.90;;;;;;5050384;28;20450;-57
2022/06/16 02:16:11;;;;;;;12.30;8.40;;;17.80;99.90;;;;;;5050220;28;20941;-58
2022/06/16 02:18:41;;;;;;;10.37;9.27;;;17.60;99.90;;;;;;5050110;28;20457;-58
2022/06/16 02:21:14;;;;;;;9.57;8.57;;;17.60;99.90;;;;;;5049903;28;20520;-59
2022/06/16 02:23:41;;;;;;;12.17;9.53;;;17.50;99.90;;;;;;5050284;28;20492;-59
2022/06/16 02:26:08;;;;;;;11.20;9.27;;;17.60;99.90;;;;;;5049999;28;20446;-58
2022/06/16 02:28:44;;;;;;;12.43;9.97;;;17.50;99.90;;;;;;5050121;28;20507;-58
2022/06/16 02:31:26;;;;;;;11.90;10.70;;;17.40;99.90;;;;;;5049783;28;20542;-59
2022/06/16 02:34:05;;;;;;;11.20;10.00;;;17.50;99.90;;;;;;5049950;28;20504;-58
2022/06/16 02:37:05;;;;;;;10.10;9.10;;;17.70;99.90;;;;;;5049871;28;20572;-57
2022/06/16 02:39:51;;;;;;;10.23;9.23;;;18.00;99.90;;;;;;5049798;28;20498;-58
2022/06/16 02:42:23;;;;;;;15.03;9.63;;;18.20;99.90;;;;;;5049304;28;20945;-58
2022/06/16 02:45:01;;;;;;;11.87;10.77;;;17.90;99.90;;;;;;5049489;28;20493;-58
2022/06/16 02:47:47;;;;;;;9.37;8.47;;;17.80;99.90;;;;;;5049430;28;20465;-57
2022/06/16 02:50:29;;;;;;;11.23;9.90;;;18.00;99.90;;;;;;5049565;28;20990;-57
2022/06/16 02:53:06;;;;;;;10.57;9.37;;;17.80;99.90;;;;;;5049859;28;20461;-59
2022/06/16 02:55:37;;;;;;;11.00;9.73;;;17.90;99.90;;;;;;5049385;28;20453;-58
2022/06/16 02:58:06;;;;;;;13.53;9.67;;;18.10;99.90;;;;;;5049344;28;20473;-57
2022/06/16 03:00:38;;;;;;;11.50;8.90;;;18.10;99.90;;;;;;5049498;28;20489;-58
2022/06/16 03:03:24;;;;;;;11.00;8.27;;;18.30;99.90;;;;;;5049479;28;20541;-58
2022/06/16 03:05:53;;;;;;;9.70;8.73;;;18.40;99.90;;;;;;5049637;28;20450;-58
2022/06/16 03:08:22;;;;;;;9.37;8.47;;;18.40;99.90;;;;;;5049125;28;20484;-58
2022/06/16 03:10:51;;;;;;;10.47;8.47;;;18.40;99.90;;;;;;5049537;28;20450;-58
2022/06/16 03:13:19;;;;;;;9.50;8.50;;;18.40;99.90;;;;;;5049190;28;20465;-58
2022/06/16 03:15:46;;;;;;;11.50;9.57;;;18.50;99.90;;;;;;5049610;28;20456;-58
2022/06/16 03:18:13;;;;;;;11.13;8.10;;;18.60;99.90;;;;;;5049476;28;20860;-58
2022/06/16 03:20:41;;;;;;;13.70;8.40;;;18.60;99.90;;;;;;5049468;28;20519;-58
2022/06/16 03:23:09;;;;;;;10.77;7.97;;;18.60;99.90;;;;;;5049222;28;20477;-59
2022/06/16 03:25:37;;;;;;;9.43;8.17;;;18.60;99.90;;;;;;5049178;28;20990;-58
2022/06/16 03:28:05;;;;;;;12.20;9.33;;;18.80;99.90;;;;;;5049020;28;20579;-58
2022/06/16 03:30:33;;;;;;;11.30;10.10;;;18.90;99.90;;;;;;5049320;28;20449;-59
2022/06/16 03:33:00;;;;;;;16.23;8.67;;;19.10;99.90;;;;;;5049275;28;20481;-58
2022/06/16 03:35:28;;;;;;;11.53;9.30;;;19.00;99.90;;;;;;5049144;28;20523;-59
2022/06/16 03:37:56;;;;;;;9.73;8.73;;;19.00;99.90;;;;;;5048950;28;20977;-58
2022/06/16 03:40:24;;;;;;;10.20;8.90;;;18.90;99.90;;;;;;5049112;28;20512;-58
2022/06/16 03:42:51;;;;;;;9.90;8.67;;;18.90;99.90;;;;;;5049465;28;20935;-58
2022/06/16 03:45:18;;;;;;;10.43;8.13;;;19.00;99.90;;;;;;5048762;28;21250;-59
2022/06/16 03:47:46;;;;;;;12.30;10.13;;;19.00;99.90;;;;;;5049124;28;20489;-58
2022/06/16 03:50:15;;;;;;;11.00;9.87;;;19.00;99.90;;;;;;5049153;28;20553;-58
2022/06/16 03:52:42;;;;;;;12.53;10.53;;;19.00;99.90;;;;;;5049111;28;20445;-58
2022/06/16 03:55:10;;;;;;;10.40;9.20;;;19.20;99.90;;;;;;5049072;28;20934;-58
2022/06/16 03:57:38;;;;;;;11.30;9.40;;;19.20;99.90;;;;;;5049083;28;20462;-59
2022/06/16 04:00:06;;;;;;;14.37;9.63;;;19.30;99.90;;;;;;5049045;28;20489;-58
2022/06/16 04:02:33;;;;;;;11.33;9.97;;;19.50;99.90;;;;;;5048807;28;20453;-58
2022/06/16 04:05:00;;;;;;;14.20;10.13;;;19.50;99.90;;;;;;5048992;28;20805;-58
2022/06/16 04:07:28;;;;;;;15.13;9.60;;;19.50;99.90;;;;;;5049478;28;20469;-58
2022/06/16 04:09:55;;;;;;;16.90;10.37;;;19.40;99.90;;;;;;5052630;28;20478;-59
2022/06/16 04:12:23;;;;;;;12.00;9.90;;;19.50;99.90;;;;;;5052648;28;20986;-58
2022/06/16 04:14:51;;;;;;;10.60;9.50;;;19.40;99.90;;;;;;5052769;28;20868;-59
2022/06/16 04:17:18;;;;;;;17.10;11.70;;;19.20;99.90;;;;;;5052269;28;20477;-58
2022/06/16 04:22:26;;;;;;;12.63;11.33;;;19.20;99.90;;;;;;5052228;28;20780;-59
2022/06/16 04:24:53;;;;;;;16.70;10.80;;;19.20;99.90;;;;;;5052598;28;20445;-59
2022/06/16 04:27:20;;;;;;;10.83;9.33;;;19.40;99.90;;;;;;5052336;28;20480;-58
2022/06/16 04:29:48;;;;;;;12.87;10.43;;;19.70;99.90;;;;;;5052200;28;20473;-58
2022/06/16 04:32:15;;;;;;;10.97;9.73;;;19.80;99.90;;;;;;5052199;28;20442;-58
2022/06/16 04:34:43;;;;;;;11.77;10.60;;;19.90;99.90;;;;;;5052287;28;20874;-59
2022/06/16 04:37:11;;;;;;;12.97;10.67;;;20.00;99.90;;;;;;5052015;28;20473;-58
2022/06/16 04:39:39;;;;;;;12.50;10.10;;;20.20;99.90;;;;;;5052032;28;20441;-58
2022/06/16 04:42:06;;;;;;;12.80;10.23;;;20.30;99.90;;;;;;5052151;28;20894;-59
2022/06/16 04:44:34;;;;;;;12.33;10.90;;;20.40;99.90;;;;;;5051451;28;20494;-59
2022/06/16 04:47:03;;;;;;;13.27;10.13;;;20.50;99.90;;;;;;5052053;28;20470;-59
2022/06/16 04:49:30;;;;;;;11.73;9.27;;;20.60;99.90;;;;;;5051959;28;20929;-59
2022/06/16 04:51:57;;;;;;;13.53;10.93;;;20.70;99.90;;;;;;5051916;28;20977;-58
2022/06/16 04:54:24;;;;;;;11.47;10.07;;;20.80;99.90;;;;;;5051847;28;20454;-57
2022/06/16 04:56:52;;;;;;;16.37;10.40;;;20.80;99.90;;;;;;5051449;28;20470;-58
2022/06/16 04:59:19;;;;;;;12.43;10.80;;;20.90;99.90;;;;;;5051543;28;20449;-58
2022/06/16 05:01:46;;;;;;;13.17;11.67;;;21.00;99.90;;;;;;5051625;28;20490;-63
2022/06/16 05:04:14;;;;;;;16.73;11.03;;;21.10;99.90;;;;;;5051284;28;20457;-61
2022/06/16 05:06:41;;;;;;;12.03;10.73;;;21.20;99.90;;;;;;5051454;28;20466;-62
2022/06/16 05:09:08;;;;;;;14.70;10.67;;;21.30;99.90;;;;;;5051571;28;20527;-65
2022/06/16 05:11:35;;;;;;;11.97;10.47;;;21.30;99.90;;;;;;5051254;28;20571;-61
2022/06/16 05:14:02;;;;;;;17.60;12.70;;;21.40;99.90;;;;;;5051278;28;20527;-61
2022/06/16 05:16:30;;;;;;;15.47;12.47;;;21.50;99.90;;;;;;5051374;28;20470;-62
2022/06/16 05:18:57;;;;;;;16.47;12.20;;;21.50;99.90;;;;;;5050926;28;20465;-63
2022/06/16 05:21:26;;;;;;;14.13;11.77;;;21.50;99.90;;;;;;5051207;28;20518;-61
2022/06/16 05:23:53;;;;;;;13.33;12.03;;;21.60;99.90;;;;;;5051012;28;20727;-63
2022/06/16 05:26:20;;;;;;;18.00;12.67;;;21.70;99.90;;;;;;5051153;28;20442;-61
2022/06/16 05:28:47;;;;;;;17.43;14.07;;;21.80;99.90;;;;;;5051185;28;20453;-64
2022/06/16 05:31:14;;;;;;;15.13;13.00;;;21.90;99.90;;;;;;5050884;28;20442;-60
2022/06/16 05:33:41;;;;;;;14.80;12.57;;;21.80;99.90;;;;;;5050863;28;20457;-60
2022/06/16 05:36:11;;;;;;;14.93;12.03;;;21.80;99.90;;;;;;5050597;28;20519;-62
2022/06/16 05:38:40;;;;;;;14.37;12.60;;;22.00;99.90;;;;;;5050619;28;20504;-64
2022/06/16 05:41:12;;;;;;;14.07;12.57;;;22.00;99.90;;;;;;5050609;28;20547;-61
2022/06/16 05:43:39;;;;;;;14.30;12.20;;;22.00;99.90;;;;;;5050536;28;20472;-59
2022/06/16 05:46:08;;;;;;;14.83;12.00;;;22.10;99.90;;;;;;5050498;28;20560;-65
2022/06/16 05:48:35;;;;;;;13.83;12.50;;;22.10;99.90;;;;;;5050822;28;20462;-64
2022/06/16 05:51:08;;;;;;;16.60;12.30;;;22.30;99.90;;;;;;5050684;28;20449;-64
2022/06/16 05:53:36;;;;;;;15.60;12.30;;;22.40;99.90;;;;;;5050231;28;20446;-63
2022/06/16 05:56:04;;;;;;;14.17;12.63;;;22.50;99.90;;;;;;5050551;28;20503;-62
2022/06/16 05:58:32;;;;;;;13.20;11.57;;;22.50;99.90;;;;;;5050648;28;20458;-63
2022/06/16 06:00:59;;;;;;;17.00;11.93;;;22.60;99.90;;;;;;5050333;28;20486;-64
2022/06/16 06:03:27;;;;;;;12.50;10.77;;;22.60;99.90;;;;;;5050283;28;20457;-61
2022/06/16 06:05:54;;;;;;;15.77;12.20;;;22.60;99.90;;;;;;5050107;28;20548;-64
2022/06/16 06:16:42;;;;;;;15.80;12.60;;;22.60;99.90;;;;;;5049928;28;20530;-64
2022/06/16 06:19:26;;;;;;;15.83;13.07;;;22.70;99.90;;;;;;5050014;28;20938;-63
2022/06/16 06:22:05;;;;;;;15.93;13.43;;;22.90;99.90;;;;;;5050092;28;20485;-61
2022/06/16 06:24:34;;;;;;;15.90;13.67;;;23.10;99.90;;;;;;5049854;28;20944;-60
2022/06/16 06:27:05;;;;;;;14.83;13.13;;;23.30;99.90;;;;;;5049869;28;20504;-60
2022/06/16 06:29:32;;;;;;;15.50;14.00;;;23.30;99.90;;;;;;5049993;28;21032;-58
2022/06/16 06:31:59;;;;;;;19.93;16.07;;;23.40;99.90;;;;;;5049246;28;20453;-59
2022/06/16 06:34:26;;;;;;;17.90;15.80;;;23.40;99.90;;;;;;5049823;28;20519;-61
2022/06/16 06:36:53;;;;;;;23.20;16.50;;;23.40;99.90;;;;;;5049440;28;20948;-62
2022/06/16 06:39:20;;;;;;;20.67;16.93;;;23.50;99.90;;;;;;5049896;28;20449;-62
2022/06/16 06:41:47;;;;;;;18.67;14.43;;;23.60;99.90;;;;;;5049694;28;20493;-63
2022/06/16 06:44:16;;;;;;;17.73;15.90;;;23.80;99.90;;;;;;5049665;28;20485;-60
2022/06/16 06:46:43;;;;;;;17.37;15.47;;;23.90;99.90;;;;;;5049957;28;20454;-59
2022/06/16 06:49:10;;;;;;;18.73;16.10;;;24.00;99.90;;;;;;5049834;28;20469;-61
2022/06/16 06:51:37;;;;;;;18.73;16.80;;;24.20;99.90;;;;;;5049387;28;20446;-61
2022/06/16 06:54:04;;;;;;;19.67;17.63;;;24.30;99.90;;;;;;5049434;28;20497;-58
2022/06/16 06:56:33;;;;;;;18.17;16.20;;;24.40;99.90;;;;;;5049349;28;20805;-62
2022/06/16 06:59:04;;;;;;;20.10;17.47;;;24.60;99.90;;;;;;5049712;28;20965;-62
2022/06/16 07:01:33;;;;;;;20.27;17.73;;;24.80;99.90;;;;;;5049414;28;20494;-60
2022/06/16 07:04:00;;;;;;;21.27;19.00;;;24.90;99.90;;;;;;5049274;28;20512;-59
2022/06/16 07:06:27;;;;;;;20.37;18.07;;;25.00;99.90;;;;;;5049148;28;20886;-62
2022/06/16 07:08:54;;;;;;;18.97;17.17;;;25.10;99.90;;;;;;5049307;28;20469;-61
2022/06/16 07:11:21;;;;;;;19.70;17.63;;;25.30;99.90;;;;;;5049485;28;20449;-62
2022/06/16 07:13:48;;;;;;;19.43;17.23;;;25.50;99.90;;;;;;5049445;28;20450;-59
2022/06/16 07:16:15;;;;;;;20.10;18.10;;;25.60;99.90;;;;;;5049453;28;20450;-61
2022/06/16 07:18:46;;;;;;;21.60;19.37;;;25.80;99.90;;;;;;5048942;28;20539;-61
2022/06/16 07:21:14;;;;;;;21.30;19.40;;;25.90;99.90;;;;;;5049411;28;20576;-62
2022/06/16 07:23:41;;;;;;;24.10;18.80;;;25.90;99.90;;;;;;5048950;28;20511;-63
2022/06/16 07:26:09;;;;;;;20.93;18.73;;;26.00;99.90;;;;;;5048984;28;20460;-63
2022/06/16 07:28:37;;;;;;;20.70;18.70;;;26.10;99.90;;;;;;5049238;28;20474;-61
2022/06/16 07:31:04;;;;;;;23.30;20.50;;;26.20;99.90;;;;;;5048978;28;20453;-62
2022/06/16 07:33:31;;;;;;;22.67;20.57;;;26.30;99.90;;;;;;5048740;28;20458;-61
2022/06/16 07:36:00;;;;;;;24.00;21.60;;;26.20;99.90;;;;;;5049372;28;20527;-61
2022/06/16 07:38:28;;;;;;;20.73;18.70;;;26.10;99.90;;;;;;5049257;28;20809;-62
2022/06/16 07:41:31;;;;;;;21.23;19.13;;;25.90;99.90;;;;;;5049333;28;20461;-63
2022/06/16 07:43:42;;;;;;;22.67;20.33;;;25.90;99.90;;;;;;5052703;28;20460;-59
2022/06/16 07:46:10;;;;;;;22.57;20.27;;;26.20;99.90;;;;;;5053034;28;20445;-62
2022/06/16 07:48:37;;;;;;;22.30;20.00;;;26.50;99.90;;;;;;5052894;28;20461;-61
2022/06/16 07:51:05;;;;;;;21.63;19.40;;;26.70;99.90;;;;;;5052885;28;20445;-62
2022/06/16 07:53:33;;;;;;;21.13;19.13;;;26.90;99.90;;;;;;5052941;28;20775;-61
2022/06/16 07:56:00;;;;;;;20.67;18.67;;;26.90;99.90;;;;;;5053003;28;20881;-62
2022/06/16 07:58:31;;;;;;;22.87;19.57;;;26.80;99.90;;;;;;5052829;28;20473;-63
2022/06/16 08:00:58;;;;;;;22.77;20.70;;;26.90;99.90;;;;;;5052714;28;20806;-60
2022/06/16 08:03:27;;;;;;;22.90;20.80;;;26.60;99.90;;;;;;5052295;28;20453;-59
2022/06/16 08:05:55;;;;;;;20.47;18.47;;;26.80;99.90;;;;;;5052810;28;20961;-62
2022/06/16 08:08:25;;;;;;;21.33;19.23;;;26.80;99.90;;;;;;5052136;28;20473;-60
2022/06/16 08:10:53;;;;;;;21.87;19.57;;;26.70;99.90;;;;;;5052448;28;20453;-63
2022/06/16 08:13:21;;;;;;;20.80;18.20;;;26.80;99.90;;;;;;5052462;28;20538;-62
2022/06/16 08:15:49;;;;;;;21.27;19.27;;;27.10;99.90;;;;;;5052849;28;20460;-62
2022/06/16 08:18:18;;;;;;;21.80;19.67;;;27.40;99.90;;;;;;5052383;28;20476;-59
2022/06/16 08:20:46;;;;;;;19.40;17.60;;;27.70;99.90;;;;;;5052534;28;20450;-61
2022/06/16 08:23:13;;;;;;;20.13;18.33;;;27.80;99.90;;;;;;5052257;28;20568;-59
2022/06/16 08:25:43;;;;;;;20.23;18.13;;;27.80;99.90;;;;;;5052134;28;20515;-62
2022/06/16 08:28:11;;;;;;;20.03;18.03;;;27.80;99.90;;;;;;5052191;28;20565;-63
2022/06/16 08:30:44;;;;;;;20.93;19.00;;;27.80;99.90;;;;;;5052185;28;20454;-61
2022/06/16 08:33:13;;;;;;;21.13;19.23;;;27.80;99.90;;;;;;5052174;28;20938;-61
2022/06/16 08:35:41;;;;;;;20.00;18.00;;;27.80;99.90;;;;;;5051832;28;20445;-60
2022/06/16 08:38:09;;;;;;;21.10;19.10;;;27.80;99.90;;;;;;5051888;28;20527;-62
2022/06/16 08:40:41;;;;;;;20.43;18.33;;;27.80;99.90;;;;;;5051944;28;20896;-62
2022/06/16 08:43:19;;;;;;;19.90;17.90;;;27.90;99.90;;;;;;5052005;28;21079;-63
2022/06/16 08:45:52;;;;;;;22.77;19.73;;;28.10;99.90;;;;;;5051561;28;20493;-61
2022/06/16 08:48:27;;;;;;;20.27;18.40;;;28.20;99.90;;;;;;5051458;28;20470;-62
2022/06/16 08:50:57;;;;;;;20.00;18.00;;;28.50;99.90;;;;;;5051604;28;20953;-62
2022/06/16 08:53:41;;;;;;;24.30;17.17;;;28.40;99.90;;;;;;5050857;28;20458;-63
2022/06/16 08:56:12;;;;;;;20.77;18.67;;;28.70;99.90;;;;;;5051483;28;20457;-60
2022/06/16 08:58:43;;;;;;;18.10;16.43;;;28.80;99.90;;;;;;5051184;28;20496;-62
2022/06/16 09:01:15;;;;;;;19.50;17.60;;;29.10;99.90;;;;;;5051335;28;20450;-59
2022/06/16 09:03:48;;;;;;;20.33;18.13;;;28.90;99.90;;;;;;5051552;28;20457;-61
2022/06/16 09:06:28;;;;;;;17.90;16.30;;;28.80;99.90;;;;;;5051333;28;20925;-64
2022/06/16 09:09:03;;;;;;;18.10;16.50;;;28.80;99.90;;;;;;5051434;28;20449;-60
2022/06/16 09:11:38;;;;;;;17.50;15.90;;;29.00;99.90;;;;;;5051033;28;20456;-61
2022/06/16 09:15:10;;;;;;;17.40;15.90;;;29.30;99.60;;;;;;5051450;28;20449;-63
2022/06/16 09:17:23;;;;;;;18.20;16.60;;;29.60;98.90;;;;;;5050869;28;20480;-63
2022/06/16 09:20:03;;;;;;;19.17;17.33;;;29.50;98.00;;;;;;5051054;28;20449;-62
2022/06/16 09:22:43;;;;;;;16.53;15.03;;;29.70;97.40;;;;;;5051240;28;20572;-61
2022/06/16 09:25:24;;;;;;;17.97;16.27;;;29.90;96.80;;;;;;5051336;28;20499;-63
2022/06/16 09:27:56;;;;;;;19.17;17.37;;;29.80;96.10;;;;;;5050946;28;20462;-63
2022/06/16 09:30:30;;;;;;;15.60;13.97;;;29.50;97.20;;;;;;5050903;28;20461;-61
2022/06/16 09:33:01;;;;;;;16.70;15.13;;;29.20;93.90;;;;;;5051054;28;20824;-62
2022/06/16 09:35:35;;;;;;;16.90;15.30;;;28.90;95.20;;;;;;5050723;28;20446;-61
2022/06/16 09:38:08;;;;;;;16.27;14.67;;;28.70;97.00;;;;;;5050899;28;21044;-65
2022/06/16 09:40:38;;;;;;;16.10;14.60;;;28.40;95.80;;;;;;5050489;28;20454;-63
2022/06/16 09:43:10;;;;;;;15.73;14.17;;;28.40;95.90;;;;;;5050543;28;20539;-61
2022/06/16 09:45:45;;;;;;;14.20;12.73;;;28.20;93.70;;;;;;5050587;28;20574;-63
2022/06/16 09:48:18;;;;;;;13.77;12.40;;;28.10;94.00;;;;;;5050745;28;20897;-61
2022/06/16 09:50:50;;;;;;;15.00;13.63;;;28.00;93.60;;;;;;5050673;28;20515;-61
2022/06/16 09:53:24;;;;;;;15.70;14.20;;;28.30;94.50;;;;;;5050492;28;20462;-61
2022/06/16 09:55:56;;;;;;;15.53;14.00;;;28.70;94.80;;;;;;5050624;28;20540;-64
2022/06/16 09:58:30;;;;;;;17.07;15.33;;;29.10;92.80;;;;;;5050490;28;20531;-61
2022/06/16 10:01:03;;;;;;;16.30;14.20;;;29.20;92.10;;;;;;5050390;28;20476;-61
2022/06/16 10:03:36;;;;;;;16.73;15.03;;;29.40;91.10;;;;;;5050247;28;20875;-62
2022/06/16 10:06:17;;;;;;;15.43;14.03;;;29.60;92.70;;;;;;5049140;28;20457;-61
2022/06/16 10:08:50;;;;;;;15.13;13.67;;;29.50;90.70;;;;;;5050467;28;20454;-60
2022/06/16 10:11:26;;;;;;;15.60;14.13;;;29.20;90.60;;;;;;5050151;28;20449;-64
2022/06/16 10:13:59;;;;;;;17.80;14.00;;;29.10;90.70;;;;;;5050026;28;20453;-63
2022/06/16 10:16:37;;;;;;;14.60;13.10;;;29.20;90.70;;;;;;5050262;28;20478;-62
2022/06/16 10:19:06;;;;;;;16.07;14.63;;;29.40;90.60;;;;;;5050173;28;20820;-62
2022/06/16 10:21:35;;;;;;;15.00;13.53;;;29.60;91.50;;;;;;5050083;28;20776;-61
2022/06/16 10:24:06;;;;;;;14.47;13.20;;;30.10;92.60;;;;;;5049863;28;20541;-62
2022/06/16 10:26:34;;;;;;;17.20;14.50;;;30.30;90.00;;;;;;5049796;28;20523;-62
2022/06/16 10:29:07;;;;;;;15.73;14.13;;;30.10;89.70;;;;;;5049877;28;20986;-62
2022/06/16 10:31:40;;;;;;;15.40;13.90;;;30.30;91.40;;;;;;5050001;28;20468;-62
2022/06/16 10:34:21;;;;;;;17.57;15.50;;;30.50;91.00;;;;;;5049920;28;20472;-60
2022/06/16 10:36:55;;;;;;;17.30;14.77;;;30.60;90.00;;;;;;5049552;28;21046;-63
2022/06/16 10:39:26;;;;;;;17.50;15.80;;;30.50;88.60;;;;;;5049938;28;20489;-64
2022/06/16 10:41:56;;;;;;;17.37;15.77;;;30.70;89.80;;;;;;5049693;28;20947;-61
2022/06/16 10:44:26;;;;;;;15.90;14.50;;;30.80;88.90;;;;;;5049256;28;20998;-62
2022/06/16 10:46:58;;;;;;;17.00;15.30;;;30.80;86.00;;;;;;5049234;28;20477;-65
2022/06/16 10:49:29;;;;;;;16.60;14.90;;;30.70;87.20;;;;;;5049369;28;20457;-61
2022/06/16 10:52:02;;;;;;;13.60;12.30;;;30.60;86.40;;;;;;5049365;28;20484;-60
2022/06/16 10:54:33;;;;;;;13.73;12.47;;;30.60;82.80;;;;;;5049600;28;20458;-62
2022/06/16 10:57:08;;;;;;;15.07;13.67;;;30.60;79.10;;;;;;5049694;28;20478;-61
2022/06/16 10:59:41;;;;;;;14.53;12.03;;;30.50;79.60;;;;;;5049442;28;20453;-63
2022/06/16 11:02:20;;;;;;;14.67;13.37;;;30.20;80.80;;;;;;5049473;28;20489;-62
2022/06/16 11:04:56;;;;;;;15.37;13.90;;;30.20;82.10;;;;;;5049814;28;20549;-61
2022/06/16 11:07:24;;;;;;;14.80;13.50;;;30.10;80.30;;;;;;5049532;28;20477;-64
2022/06/16 11:09:52;;;;;;;13.83;12.53;;;30.30;80.50;;;;;;5049419;28;20523;-63
2022/06/16 11:12:22;;;;;;;15.80;14.40;;;30.50;81.30;;;;;;5049256;28;20469;-61
2022/06/16 11:14:55;;;;;;;16.30;14.70;;;30.80;84.30;;;;;;5049229;28;20450;-64
2022/06/16 11:17:27;;;;;;;14.20;12.80;;;31.20;80.40;;;;;;5051260;28;20831;-62
2022/06/16 11:20:00;;;;;;;14.07;12.60;;;31.20;77.60;;;;;;5053516;28;20457;-65
2022/06/16 11:22:32;;;;;;;12.93;11.70;;;31.20;77.50;;;;;;5053280;28;20894;-61
2022/06/16 11:25:05;;;;;;;13.90;12.60;;;30.90;78.00;;;;;;5053336;28;20453;-62
2022/06/16 11:27:41;;;;;;;15.13;13.63;;;30.30;75.70;;;;;;5053170;28;20523;-62
2022/06/16 11:30:31;;;;;;;15.03;12.43;;;30.30;77.10;;;;;;5053502;28;20564;-59
2022/06/16 11:32:59;;;;;;;13.30;12.00;;;30.50;80.20;;;;;;5053073;28;20445;-62
2022/06/16 11:35:33;;;;;;;13.73;12.37;;;30.70;74.60;;;;;;5053051;28;20930;-61
2022/06/16 11:38:06;;;;;;;15.00;13.70;;;30.70;83.70;;;;;;5053382;28;20537;-62
2022/06/16 11:40:45;;;;;;;14.83;13.40;;;30.90;76.20;;;;;;5053410;28;20507;-61
2022/06/16 11:43:38;;;;;;;15.60;13.83;;;30.90;75.80;;;;;;5053154;28;20497;-59
2022/06/16 11:46:11;;;;;;;13.60;12.30;;;31.20;77.20;;;;;;5052795;28;20481;-59
2022/06/16 11:48:52;;;;;;;14.20;12.90;;;31.50;76.70;;;;;;5053161;28;20450;-60
2022/06/16 11:51:29;;;;;;;15.13;13.67;;;31.70;73.10;;;;;;5053074;28;20450;-60
2022/06/16 11:54:08;;;;;;;15.60;12.70;;;31.90;72.00;;;;;;5052851;28;20442;-61
2022/06/16 11:56:42;;;;;;;13.77;12.57;;;32.10;74.70;;;;;;5052801;28;20970;-61
2022/06/16 11:59:28;;;;;;;13.47;12.27;;;32.10;74.70;;;;;;5052893;28;20446;-61
2022/06/16 12:02:01;;;;;;;14.50;13.20;;;32.20;73.70;;;;;;5052968;28;20458;-60
2022/06/16 12:04:58;;;;;;;14.77;13.57;;;32.10;73.00;;;;;;5052646;28;20522;-62
2022/06/16 12:08:12;;;;;;;13.70;12.43;;;32.00;74.50;;;;;;5039722;28;20486;-61
2022/06/16 12:10:45;;;;;;;14.33;13.03;;;31.90;76.60;;;;;;4959222;28;20455;-61
2022/06/16 12:13:21;;;;;;;15.40;11.70;;;32.20;76.10;;;;;;4990329;28;20539;-59
2022/06/16 12:15:54;;;;;;;15.90;14.50;;;32.40;71.70;;;;;;5030317;28;20450;-61
2022/06/16 12:18:43;;;;;;;15.10;13.80;;;32.70;71.90;;;;;;5052386;28;20793;-62
2022/06/16 12:21:18;;;;;;;14.40;13.00;;;32.90;72.80;;;;;;5052208;28;20527;-62
2022/06/16 12:23:52;;;;;;;15.00;13.70;;;33.30;71.70;;;;;;5052493;28;20579;-59
2022/06/16 12:26:25;;;;;;;18.03;12.80;;;33.30;68.40;;;;;;5052448;28;20925;-62
2022/06/16 12:29:03;;;;;;;14.17;12.83;;;33.10;66.40;;;;;;5051181;28;20837;-63
2022/06/16 12:31:42;;;;;;;14.13;12.53;;;33.00;68.20;;;;;;5052304;28;20511;-60
2022/06/16 12:34:16;;;;;;;15.13;13.77;;;33.10;66.60;;;;;;5052258;28;20793;-62
2022/06/16 12:36:51;;;;;;;13.20;12.00;;;33.10;65.50;;;;;;5052178;28;20473;-61
2022/06/16 12:39:23;;;;;;;14.33;12.60;;;33.20;66.50;;;;;;5052272;28;20449;-59
2022/06/16 12:41:54;;;;;;;15.10;13.73;;;33.30;67.60;;;;;;5051699;28;20462;-59
2022/06/16 12:44:27;;;;;;;15.40;13.90;;;33.40;66.70;;;;;;5051434;28;20963;-59
2022/06/16 12:46:58;;;;;;;15.50;14.03;;;33.30;65.90;;;;;;5051995;28;20535;-63
2022/06/16 12:49:29;;;;;;;15.43;13.83;;;33.00;65.00;;;;;;5052065;28;20466;-62
2022/06/16 12:52:02;;;;;;;15.93;14.53;;;32.80;70.80;;;;;;5052021;28;20492;-62
2022/06/16 12:54:34;;;;;;;15.27;13.80;;;32.70;73.90;;;;;;5051791;28;20454;-61
2022/06/16 12:57:06;;;;;;;14.50;13.00;;;32.70;65.20;;;;;;5051753;28;20481;-61
2022/06/16 12:59:36;;;;;;;14.57;13.17;;;32.70;64.70;;;;;;5051617;28;20454;-60
2022/06/16 13:02:07;;;;;;;15.17;13.73;;;32.90;65.60;;;;;;5051661;28;20508;-61
2022/06/16 13:04:35;;;;;;;14.50;13.00;;;33.10;68.30;;;;;;5051607;28;20494;-62